Airfield :
LOGIN :

Register | Disclaimer

   EN    FR    IT 

 










Legend :    VFR   Marginal VFR   IFR   Intensive IFR   Very Intensive IFR
Visi :
Ceiling :
>= 8 km
>= 3000ft
5 to 8 km
1000 to 3000 ft
1500m to 5 km
500 to 1000 ft
800 to 1500m
200 to 500 ft
< 800m
< 200 ft
Symbols :   Thunderstorms  Fog  Heavy snow  Heavy precipitations  Wind > 20 kt
SIGMETs :     Misc.  Thunderstorms  Icing  Turbulence  Mountain Waves  Volcanic Ashes







- Airport Elevation : 162 ft
- IATA code : BOD
- Download approach charts


LFBD - Bordeaux / Merignac

CURRENT METAR :
  • 251600Z AUTO 02006KT 340V080 CAVOK 29/19 Q1016 NOSIG

EXPIRED METARs :
  • 251530Z AUTO 05006KT 350V090 CAVOK 28/20 Q1016 NOSIG
  • 251500Z AUTO 03007KT 350V080 CAVOK 29/20 Q1017 NOSIG
  • 251430Z AUTO 03007KT 330V070 CAVOK 28/20 Q1017 NOSIG
  • 251400Z AUTO 05003KT 360V140 CAVOK 28/18 Q1017 NOSIG
  • 251330Z AUTO 10006KT 040V150 CAVOK 28/19 Q1017 NOSIG

TAF TAF LFBD
Valid from the 25 at 12:00 until the 26 at 18:00 UTC


251100Z 2512/2618 VRB03KT 9999 FEW025 BKN170 TX38/2616Z TN21/2605Z
BECMG 2512/2514 CAVOK
TEMPO 2612/2618 09010KT
ATIS : +33 5 57 92 81 04
No reported NOTAMs for that airfield.



MET'MAP, your aeronautical weather chart ! - Copyright ORBIFLY December 2007 - Disclaimer

ORBIFLY MET'MAP TEAM :

Programming & Development : Alexandra Zaïnal
Concept & Development : Baudouin d'Aumeries
Co-Development & Prog : Marc-Olivier Méhu
Technical & hardware support : Manuel Goepfert

Contact : metmap@orbifly.com




SOURCES & CREDITS :

   NOAA